sensor_id;sensor_type;location;lat;lon;timestamp;P1;durP1;ratioP1;P2;durP2;ratioP2
11111;SDS011;5609;49.466;8.468;2023-03-23T00:02:06;1.73;;;1.53;;
11111;SDS011;5609;49.466;8.468;2023-03-23T00:04:33;1.93;;;1.67;;
11111;SDS011;5609;49.466;8.468;2023-03-23T00:07:00;1.83;;;1.70;;
11111;SDS011;5609;49.466;8.468;2023-03-23T00:09:28;1.80;;;1.50;;
11111;SDS011;5609;49.466;8.468;2023-03-23T00:11:59;2.57;;;1.60;;
11111;SDS011;5609;49.466;8.468;2023-03-23T00:14:32;2.13;;;1.47;;
11111;SDS011;5609;49.466;8.468;2023-03-23T00:17:07;1.70;;;1.40;;
11111;SDS011;5609;49.466;8.468;2023-03-23T00:19:35;1.83;;;1.60;;
11111;SDS011;5609;49.466;8.468;2023-03-23T00:22:10;2.73;;;1.60;;
11111;SDS011;5609;49.466;8.468;2023-03-23T00:24:37;2.80;;;1.60;;
11111;SDS011;5609;49.466;8.468;2023-03-23T00:27:04;1.87;;;1.40;;
11111;SDS011;5609;49.466;8.468;2023-03-23T00:29:34;2.20;;;1.60;;
11111;SDS011;5609;49.466;8.468;2023-03-23T00:32:01;1.70;;;1.60;;
11111;SDS011;5609;49.466;8.468;2023-03-23T00:34:29;1.57;;;1.47;;
11111;SDS011;5609;49.466;8.468;2023-03-23T00:36:58;2.23;;;1.40;;
11111;SDS011;5609;49.466;8.468;2023-03-23T00:39:27;1.77;;;1.30;;
11111;SDS011;5609;49.466;8.468;2023-03-23T00:41:54;1.60;;;1.30;;
11111;SDS011;5609;49.466;8.468;2023-03-23T00:44:26;1.73;;;1.40;;
11111;SDS011;5609;49.466;8.468;2023-03-23T00:46:54;2.30;;;1.57;;
11111;SDS011;5609;49.466;8.468;2023-03-23T00:49:22;2.40;;;1.40;;
11111;SDS011;5609;49.466;8.468;2023-03-23T00:51:50;2.13;;;1.60;;
11111;SDS011;5609;49.466;8.468;2023-03-23T00:54:18;1.80;;;1.43;;
11111;SDS011;5609;49.466;8.468;2023-03-23T00:56:46;2.10;;;1.27;;
11111;SDS011;5609;49.466;8.468;2023-03-23T00:59:13;1.73;;;1.40;;
11111;SDS011;5609;49.466;8.468;2023-03-23T01:01:40;1.60;;;1.33;;
11111;SDS011;5609;49.466;8.468;2023-03-23T01:04:08;1.93;;;1.43;;
11111;SDS011;5609;49.466;8.468;2023-03-23T01:06:37;1.77;;;1.40;;
11111;SDS011;5609;49.466;8.468;2023-03-23T01:09:05;1.90;;;1.40;;
11111;SDS011;5609;49.466;8.468;2023-03-23T01:11:32;2.07;;;1.40;;
11111;SDS011;5609;49.466;8.468;2023-03-23T01:14:00;1.40;;;1.30;;
11111;SDS011;5609;49.466;8.468;2023-03-23T01:16:27;1.60;;;1.40;;
11111;SDS011;5609;49.466;8.468;2023-03-23T01:18:54;1.33;;;1.23;;
11111;SDS011;5609;49.466;8.468;2023-03-23T01:21:23;2.80;;;1.50;;
11111;SDS011;5609;49.466;8.468;2023-03-23T01:23:51;2.97;;;1.33;;
11111;SDS011;5609;49.466;8.468;2023-03-23T01:26:19;1.97;;;1.30;;
11111;SDS011;5609;49.466;8.468;2023-03-23T01:28:46;1.70;;;1.30;;
11111;SDS011;5609;49.466;8.468;2023-03-23T01:31:14;1.70;;;1.43;;
11111;SDS011;5609;49.466;8.468;2023-03-23T01:33:41;1.40;;;1.30;;
11111;SDS011;5609;49.466;8.468;2023-03-23T01:36:10;2.87;;;1.40;;
11111;SDS011;5609;49.466;8.468;2023-03-23T01:38:39;1.40;;;1.30;;
11111;SDS011;5609;49.466;8.468;2023-03-23T01:41:06;1.67;;;1.40;;
11111;SDS011;5609;49.466;8.468;2023-03-23T01:43:33;1.23;;;1.10;;
11111;SDS011;5609;49.466;8.468;2023-03-23T01:46:00;1.50;;;1.33;;
11111;SDS011;5609;49.466;8.468;2023-03-23T01:48:28;2.20;;;1.50;;
11111;SDS011;5609;49.466;8.468;2023-03-23T01:50:57;2.17;;;1.23;;
11111;SDS011;5609;49.466;8.468;2023-03-23T01:53:26;2.10;;;1.50;;
11111;SDS011;5609;49.466;8.468;2023-03-23T01:55:56;1.53;;;1.20;;
11111;SDS011;5609;49.466;8.468;2023-03-23T01:58:24;1.20;;;1.10;;
11111;SDS011;5609;49.466;8.468;2023-03-23T02:00:52;1.40;;;1.30;;
11111;SDS011;5609;49.466;8.468;2023-03-23T02:03:20;1.40;;;1.30;;
11111;SDS011;5609;49.466;8.468;2023-03-23T02:05:48;1.93;;;1.50;;
11111;SDS011;5609;49.466;8.468;2023-03-23T02:08:15;2.70;;;1.40;;
11111;SDS011;5609;49.466;8.468;2023-03-23T02:10:43;1.40;;;1.30;;
11111;SDS011;5609;49.466;8.468;2023-03-23T02:13:12;1.73;;;1.30;;
11111;SDS011;5609;49.466;8.468;2023-03-23T02:15:42;2.07;;;1.50;;
11111;SDS011;5609;49.466;8.468;2023-03-23T02:18:12;1.43;;;1.33;;
11111;SDS011;5609;49.466;8.468;2023-03-23T02:20:50;1.77;;;1.40;;
11111;SDS011;5609;49.466;8.468;2023-03-23T02:23:27;1.40;;;1.30;;
11111;SDS011;5609;49.466;8.468;2023-03-23T02:26:00;2.57;;;1.50;;
11111;SDS011;5609;49.466;8.468;2023-03-23T02:28:39;2.23;;;1.60;;
11111;SDS011;5609;49.466;8.468;2023-03-23T02:31:19;1.70;;;1.30;;
11111;SDS011;5609;49.466;8.468;2023-03-23T02:33:50;1.90;;;1.47;;
11111;SDS011;5609;49.466;8.468;2023-03-23T02:36:20;1.57;;;1.47;;
11111;SDS011;5609;49.466;8.468;2023-03-23T02:38:53;1.30;;;1.20;;
11111;SDS011;5609;49.466;8.468;2023-03-23T02:41:22;1.60;;;1.50;;
11111;SDS011;5609;49.466;8.468;2023-03-23T02:43:51;1.43;;;1.20;;
11111;SDS011;5609;49.466;8.468;2023-03-23T02:46:19;2.40;;;1.33;;
11111;SDS011;5609;49.466;8.468;2023-03-23T02:48:46;2.23;;;1.40;;
11111;SDS011;5609;49.466;8.468;2023-03-23T02:51:17;2.03;;;1.57;;
11111;SDS011;5609;49.466;8.468;2023-03-23T02:53:44;1.70;;;1.60;;
11111;SDS011;5609;49.466;8.468;2023-03-23T02:56:13;2.33;;;1.63;;
11111;SDS011;5609;49.466;8.468;2023-03-23T02:58:40;2.80;;;1.30;;
11111;SDS011;5609;49.466;8.468;2023-03-23T03:03:49;1.60;;;1.50;;
11111;SDS011;5609;49.466;8.468;2023-03-23T03:06:21;1.50;;;1.40;;
11111;SDS011;5609;49.466;8.468;2023-03-23T03:08:52;1.73;;;1.50;;
11111;SDS011;5609;49.466;8.468;2023-03-23T03:11:21;2.10;;;1.40;;
11111;SDS011;5609;49.466;8.468;2023-03-23T03:13:52;2.00;;;1.33;;
11111;SDS011;5609;49.466;8.468;2023-03-23T03:16:23;1.70;;;1.40;;
11111;SDS011;5609;49.466;8.468;2023-03-23T03:18:52;1.67;;;1.40;;
11111;SDS011;5609;49.466;8.468;2023-03-23T03:21:23;1.60;;;1.50;;
11111;SDS011;5609;49.466;8.468;2023-03-23T03:26:19;1.50;;;1.40;;
11111;SDS011;5609;49.466;8.468;2023-03-23T03:28:51;1.80;;;1.50;;
11111;SDS011;5609;49.466;8.468;2023-03-23T03:31:19;3.27;;;1.60;;
11111;SDS011;5609;49.466;8.468;2023-03-23T03:33:46;3.13;;;1.50;;
11111;SDS011;5609;49.466;8.468;2023-03-23T03:36:14;2.30;;;1.70;;
11111;SDS011;5609;49.466;8.468;2023-03-23T03:38:43;1.80;;;1.57;;
11111;SDS011;5609;49.466;8.468;2023-03-23T03:41:11;2.40;;;1.60;;
11111;SDS011;5609;49.466;8.468;2023-03-23T03:43:39;1.70;;;1.60;;
11111;SDS011;5609;49.466;8.468;2023-03-23T03:46:06;3.37;;;1.70;;
11111;SDS011;5609;49.466;8.468;2023-03-23T03:48:33;2.27;;;1.60;;
11111;SDS011;5609;49.466;8.468;2023-03-23T03:51:00;1.60;;;1.50;;
11111;SDS011;5609;49.466;8.468;2023-03-23T03:53:27;2.17;;;1.67;;
11111;SDS011;5609;49.466;8.468;2023-03-23T03:55:56;2.37;;;1.63;;
11111;SDS011;5609;49.466;8.468;2023-03-23T03:58:25;2.60;;;1.53;;
11111;SDS011;5609;49.466;8.468;2023-03-23T04:00:56;1.83;;;1.50;;
11111;SDS011;5609;49.466;8.468;2023-03-23T04:03:23;2.93;;;1.70;;
11111;SDS011;5609;49.466;8.468;2023-03-23T04:05:51;3.10;;;1.77;;
11111;SDS011;5609;49.466;8.468;2023-03-23T04:08:20;2.00;;;1.60;;
11111;SDS011;5609;49.466;8.468;2023-03-23T04:10:47;2.23;;;1.60;;
11111;SDS011;5609;49.466;8.468;2023-03-23T04:13:15;1.70;;;1.53;;
11111;SDS011;5609;49.466;8.468;2023-03-23T04:15:43;1.70;;;1.60;;
11111;SDS011;5609;49.466;8.468;2023-03-23T04:18:10;2.07;;;1.87;;
11111;SDS011;5609;49.466;8.468;2023-03-23T04:20:38;2.17;;;1.90;;
11111;SDS011;5609;49.466;8.468;2023-03-23T04:23:05;3.27;;;1.50;;
11111;SDS011;5609;49.466;8.468;2023-03-23T04:25:32;2.63;;;2.03;;
11111;SDS011;5609;49.466;8.468;2023-03-23T04:28:00;2.10;;;1.70;;
11111;SDS011;5609;49.466;8.468;2023-03-23T04:30:29;1.70;;;1.60;;
11111;SDS011;5609;49.466;8.468;2023-03-23T04:32:57;2.03;;;1.83;;
11111;SDS011;5609;49.466;8.468;2023-03-23T04:35:26;2.20;;;1.77;;
11111;SDS011;5609;49.466;8.468;2023-03-23T04:37:54;1.80;;;1.70;;
11111;SDS011;5609;49.466;8.468;2023-03-23T04:40:22;3.17;;;1.80;;
11111;SDS011;5609;49.466;8.468;2023-03-23T04:42:49;1.90;;;1.70;;
11111;SDS011;5609;49.466;8.468;2023-03-23T04:45:17;3.00;;;1.93;;
11111;SDS011;5609;49.466;8.468;2023-03-23T04:47:48;2.60;;;1.90;;
11111;SDS011;5609;49.466;8.468;2023-03-23T04:50:19;2.00;;;1.87;;
11111;SDS011;5609;49.466;8.468;2023-03-23T04:52:46;2.63;;;1.90;;
11111;SDS011;5609;49.466;8.468;2023-03-23T04:55:13;2.10;;;1.90;;
11111;SDS011;5609;49.466;8.468;2023-03-23T04:57:41;2.57;;;2.00;;
11111;SDS011;5609;49.466;8.468;2023-03-23T05:00:09;1.93;;;1.83;;
11111;SDS011;5609;49.466;8.468;2023-03-23T05:02:39;2.53;;;1.93;;
11111;SDS011;5609;49.466;8.468;2023-03-23T05:05:08;2.53;;;2.10;;
11111;SDS011;5609;49.466;8.468;2023-03-23T05:07:36;2.40;;;2.20;;
11111;SDS011;5609;49.466;8.468;2023-03-23T05:10:03;2.87;;;2.00;;
11111;SDS011;5609;49.466;8.468;2023-03-23T05:12:30;2.53;;;2.03;;
11111;SDS011;5609;49.466;8.468;2023-03-23T05:14:57;2.83;;;2.13;;
11111;SDS011;5609;49.466;8.468;2023-03-23T05:17:24;2.40;;;2.20;;
11111;SDS011;5609;49.466;8.468;2023-03-23T05:19:52;2.23;;;1.83;;
11111;SDS011;5609;49.466;8.468;2023-03-23T05:22:22;3.33;;;2.07;;
11111;SDS011;5609;49.466;8.468;2023-03-23T05:24:49;2.53;;;2.27;;
11111;SDS011;5609;49.466;8.468;2023-03-23T05:27:17;2.50;;;1.93;;
11111;SDS011;5609;49.466;8.468;2023-03-23T05:29:45;1.97;;;1.77;;
11111;SDS011;5609;49.466;8.468;2023-03-23T05:32:13;2.07;;;1.90;;
11111;SDS011;5609;49.466;8.468;2023-03-23T05:34:41;2.40;;;2.00;;
11111;SDS011;5609;49.466;8.468;2023-03-23T05:37:08;2.27;;;1.80;;
11111;SDS011;5609;49.466;8.468;2023-03-23T05:39:38;2.00;;;1.70;;
11111;SDS011;5609;49.466;8.468;2023-03-23T05:42:05;3.03;;;1.87;;
11111;SDS011;5609;49.466;8.468;2023-03-23T05:44:32;2.00;;;1.73;;
11111;SDS011;5609;49.466;8.468;2023-03-23T05:46:59;2.00;;;1.80;;
11111;SDS011;5609;49.466;8.468;2023-03-23T05:49:26;3.20;;;1.83;;
11111;SDS011;5609;49.466;8.468;2023-03-23T05:51:53;2.20;;;1.70;;
11111;SDS011;5609;49.466;8.468;2023-03-23T05:54:21;2.77;;;1.70;;
11111;SDS011;5609;49.466;8.468;2023-03-23T05:56:49;1.70;;;1.60;;
11111;SDS011;5609;49.466;8.468;2023-03-23T05:59:16;1.93;;;1.47;;
11111;SDS011;5609;49.466;8.468;2023-03-23T06:01:43;2.37;;;1.80;;
11111;SDS011;5609;49.466;8.468;2023-03-23T06:04:10;2.00;;;1.70;;
11111;SDS011;5609;49.466;8.468;2023-03-23T06:06:38;1.93;;;1.60;;
11111;SDS011;5609;49.466;8.468;2023-03-23T06:09:08;2.07;;;1.87;;
11111;SDS011;5609;49.466;8.468;2023-03-23T06:11:36;2.83;;;1.83;;
11111;SDS011;5609;49.466;8.468;2023-03-23T06:14:04;2.60;;;1.60;;
11111;SDS011;5609;49.466;8.468;2023-03-23T06:16:31;2.43;;;1.73;;
11111;SDS011;5609;49.466;8.468;2023-03-23T06:18:58;2.80;;;1.60;;
11111;SDS011;5609;49.466;8.468;2023-03-23T06:21:29;2.17;;;1.50;;
11111;SDS011;5609;49.466;8.468;2023-03-23T06:23:56;3.10;;;1.83;;
11111;SDS011;5609;49.466;8.468;2023-03-23T06:26:25;2.43;;;1.70;;
11111;SDS011;5609;49.466;8.468;2023-03-23T06:28:53;3.33;;;1.77;;
11111;SDS011;5609;49.466;8.468;2023-03-23T06:31:22;2.93;;;1.73;;
11111;SDS011;5609;49.466;8.468;2023-03-23T06:33:49;1.90;;;1.70;;
11111;SDS011;5609;49.466;8.468;2023-03-23T06:36:16;2.53;;;1.70;;
11111;SDS011;5609;49.466;8.468;2023-03-23T06:38:44;2.13;;;1.60;;
11111;SDS011;5609;49.466;8.468;2023-03-23T06:41:11;1.90;;;1.67;;
11111;SDS011;5609;49.466;8.468;2023-03-23T06:43:38;2.23;;;1.50;;
11111;SDS011;5609;49.466;8.468;2023-03-23T06:46:05;1.70;;;1.50;;
11111;SDS011;5609;49.466;8.468;2023-03-23T06:48:34;2.07;;;1.67;;
11111;SDS011;5609;49.466;8.468;2023-03-23T06:51:01;1.50;;;1.30;;
11111;SDS011;5609;49.466;8.468;2023-03-23T06:53:28;1.57;;;1.47;;
11111;SDS011;5609;49.466;8.468;2023-03-23T06:55:55;1.90;;;1.30;;
11111;SDS011;5609;49.466;8.468;2023-03-23T06:58:22;2.40;;;1.40;;
11111;SDS011;5609;49.466;8.468;2023-03-23T07:00:52;2.10;;;1.70;;
11111;SDS011;5609;49.466;8.468;2023-03-23T07:03:20;2.53;;;1.30;;
11111;SDS011;5609;49.466;8.468;2023-03-23T07:05:48;1.40;;;1.30;;
11111;SDS011;5609;49.466;8.468;2023-03-23T07:08:16;1.67;;;1.40;;
11111;SDS011;5609;49.466;8.468;2023-03-23T07:10:43;2.47;;;1.50;;
11111;SDS011;5609;49.466;8.468;2023-03-23T07:13:10;1.50;;;1.40;;
11111;SDS011;5609;49.466;8.468;2023-03-23T07:15:38;3.23;;;1.50;;
11111;SDS011;5609;49.466;8.468;2023-03-23T07:18:05;2.63;;;1.50;;
11111;SDS011;5609;49.466;8.468;2023-03-23T07:20:32;1.30;;;1.20;;
11111;SDS011;5609;49.466;8.468;2023-03-23T07:23:00;2.33;;;1.20;;
11111;SDS011;5609;49.466;8.468;2023-03-23T07:25:30;1.33;;;1.23;;
11111;SDS011;5609;49.466;8.468;2023-03-23T07:27:57;1.87;;;1.10;;
11111;SDS011;5609;49.466;8.468;2023-03-23T07:30:25;3.07;;;1.47;;
11111;SDS011;5609;49.466;8.468;2023-03-23T07:32:54;1.30;;;1.20;;
11111;SDS011;5609;49.466;8.468;2023-03-23T07:35:21;1.53;;;1.20;;
11111;SDS011;5609;49.466;8.468;2023-03-23T07:37:48;1.63;;;1.00;;
11111;SDS011;5609;49.466;8.468;2023-03-23T07:40:18;2.80;;;1.10;;
11111;SDS011;5609;49.466;8.468;2023-03-23T07:42:46;2.27;;;1.10;;
11111;SDS011;5609;49.466;8.468;2023-03-23T07:45:18;3.00;;;1.23;;
11111;SDS011;5609;49.466;8.468;2023-03-23T07:47:45;2.87;;;1.40;;
11111;SDS011;5609;49.466;8.468;2023-03-23T07:50:12;1.90;;;1.20;;
11111;SDS011;5609;49.466;8.468;2023-03-23T07:52:39;4.00;;;1.50;;
11111;SDS011;5609;49.466;8.468;2023-03-23T07:55:07;4.17;;;1.67;;
11111;SDS011;5609;49.466;8.468;2023-03-23T07:57:37;2.70;;;1.30;;
11111;SDS011;5609;49.466;8.468;2023-03-23T08:00:05;1.97;;;1.23;;
11111;SDS011;5609;49.466;8.468;2023-03-23T08:02:36;1.60;;;1.30;;
11111;SDS011;5609;49.466;8.468;2023-03-23T08:05:04;1.00;;;0.90;;
11111;SDS011;5609;49.466;8.468;2023-03-23T08:07:32;1.10;;;1.00;;
11111;SDS011;5609;49.466;8.468;2023-03-23T08:09:59;0.80;;;0.80;;
11111;SDS011;5609;49.466;8.468;2023-03-23T08:12:27;1.10;;;1.00;;
11111;SDS011;5609;49.466;8.468;2023-03-23T08:14:55;1.50;;;1.20;;
11111;SDS011;5609;49.466;8.468;2023-03-23T08:17:22;1.40;;;1.27;;
11111;SDS011;5609;49.466;8.468;2023-03-23T08:19:49;1.50;;;1.10;;
11111;SDS011;5609;49.466;8.468;2023-03-23T08:22:17;1.90;;;1.13;;
11111;SDS011;5609;49.466;8.468;2023-03-23T08:24:46;1.30;;;1.03;;
11111;SDS011;5609;49.466;8.468;2023-03-23T08:27:13;1.57;;;1.13;;
11111;SDS011;5609;49.466;8.468;2023-03-23T08:29:40;1.73;;;1.10;;
11111;SDS011;5609;49.466;8.468;2023-03-23T08:32:09;1.47;;;1.30;;
11111;SDS011;5609;49.466;8.468;2023-03-23T08:34:36;1.80;;;1.20;;
11111;SDS011;5609;49.466;8.468;2023-03-23T08:37:03;1.77;;;1.20;;
11111;SDS011;5609;49.466;8.468;2023-03-23T08:39:31;1.30;;;1.20;;
11111;SDS011;5609;49.466;8.468;2023-03-23T08:41:58;1.90;;;1.30;;
11111;SDS011;5609;49.466;8.468;2023-03-23T08:44:26;1.97;;;1.30;;
11111;SDS011;5609;49.466;8.468;2023-03-23T08:46:53;1.40;;;1.30;;
11111;SDS011;5609;49.466;8.468;2023-03-23T08:49:23;2.23;;;1.20;;
11111;SDS011;5609;49.466;8.468;2023-03-23T08:51:51;1.30;;;1.20;;
11111;SDS011;5609;49.466;8.468;2023-03-23T08:54:18;1.60;;;1.47;;
11111;SDS011;5609;49.466;8.468;2023-03-23T08:56:45;1.53;;;1.23;;
11111;SDS011;5609;49.466;8.468;2023-03-23T08:59:12;1.73;;;1.13;;
11111;SDS011;5609;49.466;8.468;2023-03-23T09:01:39;1.40;;;1.30;;
11111;SDS011;5609;49.466;8.468;2023-03-23T09:04:07;2.90;;;1.40;;
11111;SDS011;5609;49.466;8.468;2023-03-23T09:06:36;3.70;;;1.67;;
11111;SDS011;5609;49.466;8.468;2023-03-23T09:09:03;4.50;;;1.50;;
11111;SDS011;5609;49.466;8.468;2023-03-23T09:11:31;2.87;;;1.37;;
11111;SDS011;5609;49.466;8.468;2023-03-23T09:13:58;4.23;;;1.57;;
11111;SDS011;5609;49.466;8.468;2023-03-23T09:16:26;3.27;;;1.70;;
11111;SDS011;5609;49.466;8.468;2023-03-23T09:18:53;2.93;;;1.50;;
11111;SDS011;5609;49.466;8.468;2023-03-23T09:21:21;3.83;;;1.50;;
11111;SDS011;5609;49.466;8.468;2023-03-23T09:23:50;2.87;;;1.50;;
11111;SDS011;5609;49.466;8.468;2023-03-23T09:26:17;3.00;;;1.50;;
11111;SDS011;5609;49.466;8.468;2023-03-23T09:28:44;2.53;;;1.30;;
11111;SDS011;5609;49.466;8.468;2023-03-23T09:31:12;1.90;;;1.10;;
11111;SDS011;5609;49.466;8.468;2023-03-23T09:33:39;2.67;;;1.57;;
11111;SDS011;5609;49.466;8.468;2023-03-23T09:36:07;4.93;;;1.60;;
11111;SDS011;5609;49.466;8.468;2023-03-23T09:38:37;2.60;;;1.43;;
11111;SDS011;5609;49.466;8.468;2023-03-23T09:41:10;2.53;;;1.67;;
11111;SDS011;5609;49.466;8.468;2023-03-23T09:43:43;2.67;;;1.60;;
11111;SDS011;5609;49.466;8.468;2023-03-23T09:46:16;4.80;;;1.53;;
11111;SDS011;5609;49.466;8.468;2023-03-23T09:48:48;1.87;;;1.33;;
11111;SDS011;5609;49.466;8.468;2023-03-23T09:51:22;2.13;;;1.50;;
11111;SDS011;5609;49.466;8.468;2023-03-23T09:53:52;2.47;;;1.20;;
11111;SDS011;5609;49.466;8.468;2023-03-23T09:56:21;1.40;;;1.30;;
11111;SDS011;5609;49.466;8.468;2023-03-23T09:58:53;2.17;;;1.30;;
11111;SDS011;5609;49.466;8.468;2023-03-23T10:01:23;2.93;;;1.40;;
11111;SDS011;5609;49.466;8.468;2023-03-23T10:03:52;1.83;;;1.07;;
11111;SDS011;5609;49.466;8.468;2023-03-23T10:06:22;1.53;;;1.30;;
11111;SDS011;5609;49.466;8.468;2023-03-23T10:08:50;1.90;;;1.30;;
11111;SDS011;5609;49.466;8.468;2023-03-23T10:11:21;1.77;;;1.30;;
11111;SDS011;5609;49.466;8.468;2023-03-23T10:13:58;1.30;;;1.10;;
11111;SDS011;5609;49.466;8.468;2023-03-23T10:16:28;2.13;;;1.10;;
11111;SDS011;5609;49.466;8.468;2023-03-23T10:18:57;1.30;;;1.20;;
11111;SDS011;5609;49.466;8.468;2023-03-23T10:21:25;1.33;;;1.20;;
11111;SDS011;5609;49.466;8.468;2023-03-23T10:23:56;1.40;;;1.30;;
11111;SDS011;5609;49.466;8.468;2023-03-23T10:26:29;1.30;;;1.20;;
11111;SDS011;5609;49.466;8.468;2023-03-23T10:29:04;1.37;;;1.00;;
11111;SDS011;5609;49.466;8.468;2023-03-23T10:31:38;2.17;;;1.20;;
11111;SDS011;5609;49.466;8.468;2023-03-23T10:34:08;1.20;;;1.10;;
11111;SDS011;5609;49.466;8.468;2023-03-23T10:36:38;1.20;;;1.10;;
11111;SDS011;5609;49.466;8.468;2023-03-23T10:39:09;1.73;;;1.10;;
11111;SDS011;5609;49.466;8.468;2023-03-23T10:41:37;0.97;;;0.90;;
11111;SDS011;5609;49.466;8.468;2023-03-23T10:44:15;1.10;;;1.00;;
11111;SDS011;5609;49.466;8.468;2023-03-23T10:46:44;3.93;;;1.00;;
11111;SDS011;5609;49.466;8.468;2023-03-23T10:49:20;0.83;;;0.80;;
11111;SDS011;5609;49.466;8.468;2023-03-23T10:51:50;1.60;;;0.97;;
11111;SDS011;5609;49.466;8.468;2023-03-23T10:54:25;1.30;;;1.10;;
11111;SDS011;5609;49.466;8.468;2023-03-23T10:56:53;1.90;;;1.03;;
11111;SDS011;5609;49.466;8.468;2023-03-23T10:59:26;1.27;;;1.10;;
11111;SDS011;5609;49.466;8.468;2023-03-23T11:01:54;1.47;;;1.10;;
11111;SDS011;5609;49.466;8.468;2023-03-23T11:04:21;1.40;;;1.10;;
11111;SDS011;5609;49.466;8.468;2023-03-23T11:06:50;1.47;;;1.00;;
11111;SDS011;5609;49.466;8.468;2023-03-23T11:09:18;1.10;;;1.00;;
11111;SDS011;5609;49.466;8.468;2023-03-23T11:11:48;1.00;;;0.90;;
11111;SDS011;5609;49.466;8.468;2023-03-23T11:14:16;2.43;;;0.97;;
11111;SDS011;5609;49.466;8.468;2023-03-23T11:16:49;0.87;;;0.87;;
11111;SDS011;5609;49.466;8.468;2023-03-23T11:19:21;1.07;;;1.00;;
11111;SDS011;5609;49.466;8.468;2023-03-23T11:21:49;1.10;;;0.97;;
11111;SDS011;5609;49.466;8.468;2023-03-23T11:24:17;1.00;;;0.90;;
11111;SDS011;5609;49.466;8.468;2023-03-23T11:26:45;0.90;;;0.73;;
11111;SDS011;5609;49.466;8.468;2023-03-23T11:29:13;2.27;;;1.20;;
11111;SDS011;5609;49.466;8.468;2023-03-23T11:31:42;1.70;;;1.00;;
11111;SDS011;5609;49.466;8.468;2023-03-23T11:34:13;0.90;;;0.80;;
11111;SDS011;5609;49.466;8.468;2023-03-23T11:36:41;0.87;;;0.87;;
11111;SDS011;5609;49.466;8.468;2023-03-23T11:39:20;0.80;;;0.80;;
11111;SDS011;5609;49.466;8.468;2023-03-23T11:41:47;0.70;;;0.70;;
11111;SDS011;5609;49.466;8.468;2023-03-23T11:44:14;1.10;;;0.90;;
11111;SDS011;5609;49.466;8.468;2023-03-23T11:46:45;0.93;;;0.80;;
11111;SDS011;5609;49.466;8.468;2023-03-23T11:49:18;1.10;;;0.90;;
11111;SDS011;5609;49.466;8.468;2023-03-23T11:51:48;1.50;;;0.97;;
11111;SDS011;5609;49.466;8.468;2023-03-23T11:54:17;1.33;;;0.90;;
11111;SDS011;5609;49.466;8.468;2023-03-23T11:56:46;1.20;;;1.00;;
11111;SDS011;5609;49.466;8.468;2023-03-23T11:59:14;1.97;;;0.90;;
11111;SDS011;5609;49.466;8.468;2023-03-23T12:01:46;1.07;;;0.80;;
11111;SDS011;5609;49.466;8.468;2023-03-23T12:04:24;0.80;;;0.80;;
11111;SDS011;5609;49.466;8.468;2023-03-23T12:06:56;1.10;;;1.00;;
11111;SDS011;5609;49.466;8.468;2023-03-23T12:09:30;0.90;;;0.90;;
11111;SDS011;5609;49.466;8.468;2023-03-23T12:12:04;1.20;;;0.70;;
11111;SDS011;5609;49.466;8.468;2023-03-23T12:14:33;0.80;;;0.80;;
11111;SDS011;5609;49.466;8.468;2023-03-23T12:17:06;0.80;;;0.80;;
11111;SDS011;5609;49.466;8.468;2023-03-23T12:19:38;0.70;;;0.70;;
11111;SDS011;5609;49.466;8.468;2023-03-23T12:22:11;1.47;;;1.00;;
11111;SDS011;5609;49.466;8.468;2023-03-23T12:24:43;1.20;;;0.87;;
11111;SDS011;5609;49.466;8.468;2023-03-23T12:27:14;1.50;;;1.07;;
11111;SDS011;5609;49.466;8.468;2023-03-23T12:29:46;1.10;;;1.00;;
11111;SDS011;5609;49.466;8.468;2023-03-23T12:32:29;1.00;;;0.90;;
11111;SDS011;5609;49.466;8.468;2023-03-23T12:35:00;1.27;;;0.83;;
11111;SDS011;5609;49.466;8.468;2023-03-23T12:37:34;0.90;;;0.90;;
11111;SDS011;5609;49.466;8.468;2023-03-23T12:40:06;1.00;;;0.90;;
11111;SDS011;5609;49.466;8.468;2023-03-23T12:42:39;1.30;;;0.90;;
11111;SDS011;5609;49.466;8.468;2023-03-23T12:45:14;1.00;;;0.90;;
11111;SDS011;5609;49.466;8.468;2023-03-23T12:47:47;0.97;;;0.83;;
11111;SDS011;5609;49.466;8.468;2023-03-23T12:50:18;1.27;;;0.90;;
11111;SDS011;5609;49.466;8.468;2023-03-23T12:52:49;0.90;;;0.90;;
11111;SDS011;5609;49.466;8.468;2023-03-23T12:55:19;1.03;;;0.87;;
11111;SDS011;5609;49.466;8.468;2023-03-23T12:57:49;1.20;;;1.10;;
11111;SDS011;5609;49.466;8.468;2023-03-23T13:00:20;0.60;;;0.60;;
11111;SDS011;5609;49.466;8.468;2023-03-23T13:02:51;0.80;;;0.80;;
11111;SDS011;5609;49.466;8.468;2023-03-23T13:05:28;2.47;;;1.10;;
11111;SDS011;5609;49.466;8.468;2023-03-23T13:07:57;0.90;;;0.90;;
11111;SDS011;5609;49.466;8.468;2023-03-23T13:10:26;1.97;;;1.17;;
11111;SDS011;5609;49.466;8.468;2023-03-23T13:12:54;1.30;;;0.90;;
11111;SDS011;5609;49.466;8.468;2023-03-23T13:15:25;1.40;;;1.03;;
11111;SDS011;5609;49.466;8.468;2023-03-23T13:17:55;1.10;;;0.80;;
11111;SDS011;5609;49.466;8.468;2023-03-23T13:20:32;0.97;;;0.90;;
11111;SDS011;5609;49.466;8.468;2023-03-23T13:23:02;0.70;;;0.70;;
11111;SDS011;5609;49.466;8.468;2023-03-23T13:25:38;1.17;;;0.90;;
11111;SDS011;5609;49.466;8.468;2023-03-23T13:28:12;0.80;;;0.80;;
11111;SDS011;5609;49.466;8.468;2023-03-23T13:30:40;1.17;;;1.07;;
11111;SDS011;5609;49.466;8.468;2023-03-23T13:33:11;0.80;;;0.80;;
11111;SDS011;5609;49.466;8.468;2023-03-23T13:35:41;1.50;;;0.70;;
11111;SDS011;5609;49.466;8.468;2023-03-23T13:38:12;1.23;;;1.00;;
11111;SDS011;5609;49.466;8.468;2023-03-23T13:40:41;1.93;;;0.80;;
11111;SDS011;5609;49.466;8.468;2023-03-23T13:43:09;0.80;;;0.80;;
11111;SDS011;5609;49.466;8.468;2023-03-23T13:45:42;0.90;;;0.90;;
11111;SDS011;5609;49.466;8.468;2023-03-23T13:48:18;1.43;;;0.90;;
11111;SDS011;5609;49.466;8.468;2023-03-23T13:50:50;1.30;;;0.80;;
11111;SDS011;5609;49.466;8.468;2023-03-23T13:53:22;1.53;;;0.90;;
11111;SDS011;5609;49.466;8.468;2023-03-23T13:55:51;1.90;;;0.97;;
11111;SDS011;5609;49.466;8.468;2023-03-23T13:58:22;2.00;;;1.17;;
11111;SDS011;5609;49.466;8.468;2023-03-23T14:00:50;1.07;;;0.93;;
11111;SDS011;5609;49.466;8.468;2023-03-23T14:03:32;1.00;;;0.90;;
11111;SDS011;5609;49.466;8.468;2023-03-23T14:06:05;1.83;;;1.10;;
11111;SDS011;5609;49.466;8.468;2023-03-23T14:08:36;1.80;;;1.00;;
11111;SDS011;5609;49.466;8.468;2023-03-23T14:11:09;1.10;;;1.00;;
11111;SDS011;5609;49.466;8.468;2023-03-23T14:13:41;1.07;;;1.00;;
11111;SDS011;5609;49.466;8.468;2023-03-23T14:16:13;1.13;;;1.07;;
11111;SDS011;5609;49.466;8.468;2023-03-23T14:18:42;1.10;;;1.00;;
11111;SDS011;5609;49.466;8.468;2023-03-23T14:21:16;1.10;;;1.07;;
11111;SDS011;5609;49.466;8.468;2023-03-23T14:23:43;1.23;;;0.97;;
11111;SDS011;5609;49.466;8.468;2023-03-23T14:26:11;1.00;;;0.73;;
11111;SDS011;5609;49.466;8.468;2023-03-23T14:28:40;1.30;;;0.90;;
11111;SDS011;5609;49.466;8.468;2023-03-23T14:31:15;1.10;;;1.00;;
11111;SDS011;5609;49.466;8.468;2023-03-23T14:33:43;0.97;;;0.97;;
11111;SDS011;5609;49.466;8.468;2023-03-23T14:36:10;1.20;;;0.93;;
11111;SDS011;5609;49.466;8.468;2023-03-23T14:38:38;1.03;;;0.80;;
11111;SDS011;5609;49.466;8.468;2023-03-23T14:41:05;1.20;;;1.10;;
11111;SDS011;5609;49.466;8.468;2023-03-23T14:43:33;1.10;;;1.00;;
11111;SDS011;5609;49.466;8.468;2023-03-23T14:46:04;1.40;;;0.80;;
11111;SDS011;5609;49.466;8.468;2023-03-23T14:48:32;1.00;;;0.83;;
11111;SDS011;5609;49.466;8.468;2023-03-23T14:51:00;0.70;;;0.70;;
11111;SDS011;5609;49.466;8.468;2023-03-23T14:53:31;0.97;;;0.90;;
11111;SDS011;5609;49.466;8.468;2023-03-23T14:56:01;1.20;;;1.10;;
11111;SDS011;5609;49.466;8.468;2023-03-23T14:58:29;3.30;;;1.00;;
11111;SDS011;5609;49.466;8.468;2023-03-23T15:00:57;1.57;;;1.10;;
11111;SDS011;5609;49.466;8.468;2023-03-23T15:03:25;4.17;;;1.40;;
11111;SDS011;5609;49.466;8.468;2023-03-23T15:05:54;1.63;;;1.40;;
11111;SDS011;5609;49.466;8.468;2023-03-23T15:08:23;4.27;;;1.70;;
11111;SDS011;5609;49.466;8.468;2023-03-23T15:10:55;3.33;;;1.70;;
11111;SDS011;5609;49.466;8.468;2023-03-23T15:13:23;3.63;;;1.87;;
11111;SDS011;5609;49.466;8.468;2023-03-23T15:15:51;5.47;;;2.00;;
11111;SDS011;5609;49.466;8.468;2023-03-23T15:18:28;3.63;;;1.80;;